Time;durP1;ratioP1;P1;durP2;ratioP2;P2;SDS_P1;SDS_P2;PMS_P1;PMS_P2;Temp;Humidity;BMP_temperature;BMP_pressure;BME280_temperature;BME280_humidity;BME280_pressure;Samples;Min_cycle;Max_cycle;Signal;HPM_P1;HPM_P2
2022/12/14 00:01:20;;;;;;;96.85;41.00;;;-4.70;99.90;;;;;;5023606;28;20308;-58
2022/12/14 00:03:47;;;;;;;90.40;37.35;;;-4.70;99.90;;;;;;5023952;28;20049;-57
2022/12/14 00:06:24;;;;;;;94.55;40.08;;;-4.70;99.90;;;;;;5023549;28;20055;-56
2022/12/14 00:08:52;;;;;;;101.95;41.70;;;-4.70;99.90;;;;;;5021857;28;20508;-57
2022/12/14 00:11:21;;;;;;;94.80;40.13;;;-4.60;99.90;;;;;;5023528;28;20504;-56
2022/12/14 00:13:51;;;;;;;87.90;38.45;;;-4.60;99.90;;;;;;5022867;28;20037;-56
2022/12/14 00:16:17;;;;;;;83.97;38.60;;;-4.60;99.90;;;;;;5024312;28;20045;-57
2022/12/14 00:18:44;;;;;;;90.90;39.75;;;-4.60;99.90;;;;;;5023762;28;20665;-58
2022/12/14 00:21:12;;;;;;;81.82;38.28;;;-4.60;99.90;;;;;;5023493;28;20049;-55
2022/12/14 00:23:39;;;;;;;87.97;39.30;;;-4.60;99.90;;;;;;5022693;28;20338;-58
2022/12/14 00:26:07;;;;;;;86.13;39.38;;;-4.60;99.90;;;;;;5023774;28;20565;-58
2022/12/14 00:28:33;;;;;;;86.93;36.95;;;-4.60;99.90;;;;;;5021067;28;20049;-59
2022/12/14 00:30:59;;;;;;;79.53;37.45;;;-4.60;99.90;;;;;;5023310;28;20463;-58
2022/12/14 00:33:24;;;;;;;82.30;37.88;;;-4.60;99.90;;;;;;5023692;28;20637;-57
2022/12/14 00:35:50;;;;;;;89.53;38.53;;;-4.60;99.90;;;;;;5023456;28;20582;-58
2022/12/14 00:38:15;;;;;;;80.47;36.08;;;-4.60;99.90;;;;;;5021241;28;20068;-57
2022/12/14 00:40:41;;;;;;;89.90;38.65;;;-4.70;99.90;;;;;;5023032;28;20507;-58
2022/12/14 00:43:07;;;;;;;84.00;39.92;;;-4.70;99.90;;;;;;5021526;28;20408;-57
2022/12/14 00:45:32;;;;;;;87.47;36.60;;;-4.70;99.90;;;;;;5022067;28;20111;-57
2022/12/14 00:47:58;;;;;;;84.63;37.83;;;-4.70;99.90;;;;;;5020807;28;20045;-58
2022/12/14 00:50:23;;;;;;;98.40;40.17;;;-4.80;99.90;;;;;;5023189;28;20042;-58
2022/12/14 00:52:49;;;;;;;92.10;39.22;;;-4.80;99.90;;;;;;5020544;28;20160;-57
2022/12/14 00:55:14;;;;;;;91.50;38.78;;;-4.90;99.90;;;;;;5023304;28;20107;-57
2022/12/14 00:57:41;;;;;;;91.85;38.97;;;-4.90;99.90;;;;;;5021982;28;20764;-56
2022/12/14 01:00:07;;;;;;;90.28;38.17;;;-4.90;99.90;;;;;;5021226;28;20048;-59
2022/12/14 01:02:33;;;;;;;93.10;39.45;;;-4.90;99.90;;;;;;5023654;28;20055;-57
2022/12/14 01:04:58;;;;;;;91.57;36.83;;;-4.90;99.90;;;;;;5023435;28;20033;-58
2022/12/14 01:07:24;;;;;;;80.88;37.25;;;-4.90;99.90;;;;;;5022159;28;20041;-58
2022/12/14 01:09:49;;;;;;;85.45;36.13;;;-4.90;99.90;;;;;;5023206;28;20041;-56
2022/12/14 01:12:15;;;;;;;80.47;35.75;;;-5.00;99.90;;;;;;5022648;28;20060;-56
2022/12/14 01:14:40;;;;;;;83.30;36.70;;;-5.00;99.90;;;;;;5020574;28;20125;-58
2022/12/14 01:17:06;;;;;;;84.18;35.75;;;-5.10;99.90;;;;;;5023169;28;20095;-59
2022/12/14 01:19:33;;;;;;;86.57;37.83;;;-5.10;99.90;;;;;;5023071;28;20042;-56
2022/12/14 01:21:59;;;;;;;81.82;36.22;;;-5.10;99.90;;;;;;5022621;28;20049;-58
2022/12/14 01:24:24;;;;;;;86.82;36.08;;;-5.10;99.90;;;;;;5022550;28;20033;-58
2022/12/14 01:26:50;;;;;;;82.95;36.67;;;-5.20;99.90;;;;;;5023115;28;20393;-57
2022/12/14 01:29:16;;;;;;;85.03;36.40;;;-5.20;99.90;;;;;;5020361;28;20044;-57
2022/12/14 01:31:41;;;;;;;86.55;37.25;;;-5.20;99.90;;;;;;5022974;28;20044;-57
2022/12/14 01:34:08;;;;;;;77.03;35.17;;;-5.20;99.90;;;;;;5022524;28;20124;-58
2022/12/14 01:36:35;;;;;;;85.65;37.10;;;-5.20;99.90;;;;;;5023289;28;20049;-57
2022/12/14 01:39:04;;;;;;;84.80;36.65;;;-5.30;99.90;;;;;;5023258;28;20037;-58
2022/12/14 01:41:53;;;;;;;81.28;36.10;;;-5.30;99.90;;;;;;5026337;28;20048;-56
2022/12/14 01:44:18;;;;;;;93.95;37.92;;;-5.40;99.90;;;;;;5014110;28;20080;-55
2022/12/14 01:47:06;;;;;;;86.90;36.92;;;-5.40;99.90;;;;;;5026702;28;20085;-56
2022/12/14 01:49:37;;;;;;;85.47;37.15;;;-5.40;99.90;;;;;;5007807;28;20040;-58
2022/12/14 01:52:11;;;;;;;85.93;36.03;;;-5.40;99.90;;;;;;5025475;28;20046;-58
2022/12/14 01:54:44;;;;;;;82.63;36.13;;;-5.50;99.90;;;;;;5026469;28;20041;-58
2022/12/14 01:57:12;;;;;;;84.60;36.53;;;-5.50;99.90;;;;;;5026383;28;20048;-55
2022/12/14 01:59:41;;;;;;;85.60;38.28;;;-5.60;99.90;;;;;;5018944;28;20045;-56
2022/12/14 02:02:10;;;;;;;89.57;37.78;;;-5.60;99.90;;;;;;5006323;28;20549;-61
2022/12/14 02:04:40;;;;;;;93.38;38.55;;;-5.60;99.90;;;;;;5006623;28;20050;-56
2022/12/14 02:07:06;;;;;;;79.55;35.40;;;-5.60;99.90;;;;;;5021344;28;20048;-57
2022/12/14 02:09:36;;;;;;;87.05;36.58;;;-5.60;99.90;;;;;;5011467;28;20442;-57
2022/12/14 02:12:09;;;;;;;70.90;33.47;;;-5.70;99.90;;;;;;5006117;28;20049;-59
2022/12/14 02:14:35;;;;;;;80.20;34.05;;;-5.70;99.90;;;;;;5013956;28;20045;-58
2022/12/14 02:17:01;;;;;;;81.47;36.42;;;-5.80;99.90;;;;;;5025940;28;20335;-58
2022/12/14 02:19:27;;;;;;;99.78;37.30;;;-5.80;99.90;;;;;;5025396;28;20526;-56
2022/12/14 02:22:11;;;;;;;90.95;37.38;;;-5.80;99.90;;;;;;5025882;28;20048;-59
2022/12/14 02:24:46;;;;;;;;;;;-5.80;99.90;;;;;;5025667;28;20049;-56
2022/12/14 02:27:14;;;;;;;74.78;32.75;;;-5.80;99.90;;;;;;5025705;28;19979;-57
2022/12/14 02:29:58;;;;;;;81.15;34.50;;;-5.80;99.90;;;;;;5037812;28;20485;-56
2022/12/14 02:32:36;;;;;;;79.50;34.75;;;-5.90;99.90;;;;;;5025634;28;20346;-55
2022/12/14 02:35:27;;;;;;;91.43;36.58;;;-5.90;99.90;;;;;;5025547;28;20069;-56
2022/12/14 02:38:14;;;;;;;83.53;37.35;;;-6.00;99.90;;;;;;5024947;28;20041;-55
2022/12/14 02:41:00;;;;;;;95.35;37.17;;;-6.00;99.90;;;;;;5025187;28;20056;-58
2022/12/14 02:43:26;;;;;;;95.50;34.40;;;-6.00;99.90;;;;;;5022903;28;20033;-55
2022/12/14 02:45:57;;;;;;;77.93;34.15;;;-6.00;99.90;;;;;;5024483;28;20060;-57
2022/12/14 02:48:43;;;;;;;86.05;34.65;;;-6.10;99.90;;;;;;5025448;28;20045;-56
2022/12/14 02:51:30;;;;;;;83.18;34.35;;;-6.10;99.90;;;;;;5024055;28;20157;-57
2022/12/14 02:54:02;;;;;;;77.45;32.08;;;-6.20;99.90;;;;;;5019442;28;20077;-57
2022/12/14 02:56:53;;;;;;;93.03;36.65;;;-6.20;99.90;;;;;;5025131;28;20369;-57
2022/12/14 02:59:21;;;;;;;78.75;33.53;;;-6.20;99.90;;;;;;5022048;28;20401;-57
2022/12/14 03:01:49;;;;;;;85.45;35.83;;;-6.20;99.90;;;;;;5007078;28;20037;-57
2022/12/14 03:04:15;;;;;;;78.72;33.42;;;-6.30;99.90;;;;;;5024379;28;20045;-58
2022/12/14 03:07:02;;;;;;;78.13;34.28;;;-6.40;99.90;;;;;;5025037;28;20038;-57
2022/12/14 03:09:30;;;;;;;77.28;34.47;;;-6.40;99.90;;;;;;5023422;28;20087;-59
2022/12/14 03:12:10;;;;;;;76.95;34.90;;;-6.50;99.90;;;;;;5024106;28;20099;-58
2022/12/14 03:14:44;;;;;;;69.43;30.65;;;-6.50;99.90;;;;;;5021660;28;20042;-56
2022/12/14 03:17:15;;;;;;;83.20;34.23;;;-6.50;99.90;;;;;;5024289;28;20041;-57
2022/12/14 03:19:47;;;;;;;92.25;34.40;;;-6.60;99.90;;;;;;5024626;28;20179;-56
2022/12/14 03:22:21;;;;;;;75.65;33.17;;;-6.60;99.90;;;;;;5023250;28;20046;-58
2022/12/14 03:24:57;;;;;;;76.55;33.33;;;-6.60;99.90;;;;;;5004519;28;20045;-57
2022/12/14 03:27:40;;;;;;;81.45;33.45;;;-6.60;99.90;;;;;;5022466;28;20050;-59
2022/12/14 03:30:09;;;;;;;92.72;36.55;;;-6.60;99.90;;;;;;5022968;28;20469;-58
2022/12/14 03:32:39;;;;;;;91.35;34.95;;;-6.70;99.90;;;;;;5024621;28;20119;-57
2022/12/14 03:35:19;;;;;;;89.88;35.75;;;-6.70;99.90;;;;;;5023655;28;20423;-59
2022/12/14 03:38:02;;;;;;;78.75;34.17;;;-6.60;99.90;;;;;;5023868;28;20588;-57
2022/12/14 03:40:44;;;;;;;71.68;31.13;;;-6.60;99.90;;;;;;5024095;28;20128;-57
2022/12/14 03:43:32;;;;;;;63.85;28.38;;;-6.70;99.90;;;;;;5022696;28;20049;-56
2022/12/14 03:46:25;;;;;;;76.13;31.73;;;-6.80;99.90;;;;;;5023193;28;20048;-56
2022/12/14 03:48:54;;;;;;;71.68;32.65;;;-6.80;99.90;;;;;;5024235;28;20266;-56
2022/12/14 03:51:27;;;;;;;74.07;31.92;;;-6.90;99.90;;;;;;5023207;28;20064;-56
2022/12/14 03:54:14;;;;;;;94.57;36.15;;;-6.90;99.90;;;;;;5038478;28;20060;-56
2022/12/14 03:56:55;;;;;;;92.65;36.28;;;-7.00;99.90;;;;;;5023978;28;20499;-54
2022/12/14 03:59:21;;;;;;;107.13;41.13;;;-6.90;99.90;;;;;;5020679;28;20095;-56
2022/12/14 04:02:08;;;;;;;107.30;39.63;;;-6.90;99.90;;;;;;5023648;28;20049;-56
2022/12/14 04:04:56;;;;;;;103.70;38.33;;;-6.80;99.90;;;;;;5024052;28;20482;-57
2022/12/14 04:07:25;;;;;;;108.75;39.67;;;-6.70;99.90;;;;;;5023301;28;20088;-58
2022/12/14 04:18:55;;;;;;;114.82;40.05;;;-6.50;99.90;;;;;;5023814;28;20049;-59
2022/12/14 04:21:31;;;;;;;107.18;41.05;;;-6.50;99.90;;;;;;5022983;28;20100;-57
2022/12/14 04:27:05;;;;;;;112.85;39.40;;;-6.40;99.90;;;;;;5023523;28;20057;-56
2022/12/14 04:32:38;;;;;;;110.47;40.50;;;-6.40;99.90;;;;;;5023531;28;20084;-55
2022/12/14 04:35:22;;;;;;;107.68;38.85;;;-6.30;99.90;;;;;;5023896;28;20041;-56
2022/12/14 04:37:51;;;;;;;110.05;37.58;;;-6.40;99.90;;;;;;5021730;28;20045;-57
2022/12/14 04:40:26;;;;;;;99.72;36.55;;;-6.40;99.90;;;;;;5023253;28;20083;-53
2022/12/14 04:42:56;;;;;;;96.22;36.70;;;-6.40;99.90;;;;;;5022062;28;20053;-56
2022/12/14 04:45:38;;;;;;;99.07;36.47;;;-6.40;99.90;;;;;;5021953;28;20128;-56
2022/12/14 04:48:06;;;;;;;95.00;34.85;;;-6.40;99.90;;;;;;5023460;28;20033;-56
2022/12/14 04:50:38;;;;;;;86.20;36.13;;;-6.50;99.90;;;;;;5022720;28;20113;-53
2022/12/14 04:53:11;;;;;;;100.25;35.53;;;-6.50;99.90;;;;;;5022417;28;20389;-56
2022/12/14 04:55:56;;;;;;;95.65;36.75;;;-6.50;99.90;;;;;;5023848;28;20492;-57
2022/12/14 04:58:25;;;;;;;92.13;35.47;;;-6.50;99.90;;;;;;5021261;28;20052;-56
2022/12/14 05:01:19;;;;;;;98.60;34.15;;;-6.50;99.90;;;;;;5020548;28;20116;-56
2022/12/14 05:04:00;;;;;;;101.43;36.40;;;-6.50;99.90;;;;;;5038408;28;20045;-60
2022/12/14 05:06:36;;;;;;;114.82;36.50;;;-6.50;99.90;;;;;;5023451;28;20079;-53
2022/12/14 05:09:17;;;;;;;77.00;32.28;;;-6.50;99.90;;;;;;5022481;28;20044;-58
2022/12/14 05:11:58;;;;;;;77.65;31.70;;;-6.60;99.90;;;;;;5022726;28;20049;-59
2022/12/14 05:14:42;;;;;;;71.40;31.92;;;-6.60;99.90;;;;;;5022974;28;20081;-58
2022/12/14 05:17:08;;;;;;;84.85;33.67;;;-6.80;99.90;;;;;;5025726;28;20049;-59
2022/12/14 05:19:34;;;;;;;84.03;32.30;;;-6.80;99.90;;;;;;5025680;28;20492;-59
2022/12/14 05:22:07;;;;;;;84.38;33.10;;;-6.90;99.90;;;;;;5026293;28;20138;-60
2022/12/14 05:24:33;;;;;;;86.18;33.25;;;-6.90;99.90;;;;;;5026369;28;20499;-57
2022/12/14 05:26:58;;;;;;;83.32;31.98;;;-7.00;99.90;;;;;;5027130;28;20042;-58
2022/12/14 05:29:24;;;;;;;88.20;34.10;;;-7.00;99.90;;;;;;5024273;28;20041;-56
2022/12/14 05:31:50;;;;;;;98.10;35.35;;;-7.00;99.90;;;;;;5026400;28;20041;-59
2022/12/14 05:34:16;;;;;;;80.80;33.28;;;-7.00;99.90;;;;;;5026908;28;20400;-57
2022/12/14 05:36:42;;;;;;;97.85;37.45;;;-7.00;99.90;;;;;;5026731;28;20041;-58
2022/12/14 05:39:07;;;;;;;94.70;35.10;;;-7.00;99.90;;;;;;5026333;28;20523;-59
2022/12/14 05:41:33;;;;;;;92.10;35.50;;;-7.00;99.90;;;;;;5026386;28;20053;-59
2022/12/14 05:43:58;;;;;;;90.93;35.13;;;-7.00;99.90;;;;;;5023418;28;20040;-58
2022/12/14 05:46:24;;;;;;;90.32;33.35;;;-7.00;99.90;;;;;;5026797;28;20557;-58
2022/12/14 05:48:49;;;;;;;83.47;32.42;;;-6.90;99.90;;;;;;5026300;28;20053;-56
2022/12/14 05:51:15;;;;;;;78.07;31.83;;;-7.00;99.90;;;;;;5040651;28;20115;-57
2022/12/14 05:53:41;;;;;;;80.40;32.20;;;-7.00;99.90;;;;;;5025542;28;20037;-57
2022/12/14 05:56:08;;;;;;;90.00;32.78;;;-7.00;99.90;;;;;;5026431;28;20463;-56
2022/12/14 05:58:34;;;;;;;85.82;32.97;;;-7.00;99.90;;;;;;5024531;28;20386;-58
2022/12/14 06:01:01;;;;;;;84.43;32.97;;;-7.10;99.90;;;;;;5025388;28;20103;-57
2022/12/14 06:03:27;;;;;;;77.32;32.85;;;-7.10;99.90;;;;;;5025556;28;20049;-57
2022/12/14 06:05:53;;;;;;;85.65;34.15;;;-7.10;99.90;;;;;;5026187;28;20041;-57
2022/12/14 06:08:20;;;;;;;83.20;32.78;;;-7.10;99.90;;;;;;5025420;28;20037;-53
2022/12/14 06:10:45;;;;;;;85.90;34.00;;;-7.10;99.90;;;;;;5026204;28;20426;-56
2022/12/14 06:13:11;;;;;;;81.22;33.35;;;-7.20;99.90;;;;;;5025386;28;20092;-59
2022/12/14 06:15:37;;;;;;;82.07;34.30;;;-7.10;99.90;;;;;;5025327;28;20526;-54
2022/12/14 06:18:02;;;;;;;85.95;32.65;;;-7.20;99.90;;;;;;5025958;28;20125;-56
2022/12/14 06:20:28;;;;;;;88.93;34.50;;;-7.20;99.90;;;;;;5024203;28;20045;-57
2022/12/14 06:22:54;;;;;;;78.43;32.33;;;-7.20;99.90;;;;;;5024811;28;20044;-55
2022/12/14 06:25:20;;;;;;;81.15;32.15;;;-7.20;99.90;;;;;;5025460;28;20516;-57
2022/12/14 06:27:46;;;;;;;83.28;33.35;;;-7.30;99.90;;;;;;5024243;28;20653;-57
2022/12/14 06:30:11;;;;;;;79.78;34.28;;;-7.20;99.90;;;;;;5023787;28;20056;-58
2022/12/14 06:32:37;;;;;;;83.90;33.83;;;-7.30;99.90;;;;;;5025265;28;20140;-58
2022/12/14 06:35:03;;;;;;;76.10;32.10;;;-7.30;99.90;;;;;;5025213;28;20123;-55
2022/12/14 06:37:30;;;;;;;76.43;30.65;;;-7.30;99.90;;;;;;5024459;28;20051;-58
2022/12/14 06:39:55;;;;;;;75.03;30.05;;;-7.30;99.90;;;;;;5024809;28;20908;-57
2022/12/14 06:42:21;;;;;;;76.13;31.42;;;-7.40;99.90;;;;;;5025449;28;20116;-56
2022/12/14 06:44:46;;;;;;;71.82;30.85;;;-7.40;99.90;;;;;;5019582;28;20137;-56
2022/12/14 06:47:12;;;;;;;75.18;31.85;;;-7.40;99.90;;;;;;5021893;28;20080;-59
2022/12/14 06:49:37;;;;;;;76.93;31.73;;;-7.50;99.90;;;;;;5024400;28;20041;-58
2022/12/14 06:52:03;;;;;;;82.88;33.10;;;-7.50;99.90;;;;;;5025111;28;20123;-57
2022/12/14 06:54:29;;;;;;;85.90;33.05;;;-7.50;99.90;;;;;;5039583;28;20635;-57
2022/12/14 06:56:54;;;;;;;82.10;32.03;;;-7.60;99.90;;;;;;5025125;28;20072;-58
2022/12/14 06:59:20;;;;;;;85.45;33.08;;;-7.60;99.90;;;;;;5022439;28;20068;-58
2022/12/14 07:01:46;;;;;;;88.65;33.75;;;-7.60;99.90;;;;;;5025202;28;20543;-58
2022/12/14 07:04:13;;;;;;;109.80;38.08;;;-7.60;99.90;;;;;;5024943;28;20045;-54
2022/12/14 07:06:39;;;;;;;104.90;39.28;;;-7.60;99.90;;;;;;5023916;28;20061;-56
2022/12/14 07:09:10;;;;;;;90.70;36.17;;;-7.60;99.90;;;;;;5023373;28;20495;-57
2022/12/14 07:11:35;;;;;;;86.22;36.13;;;-7.50;99.90;;;;;;5021366;28;20047;-58
2022/12/14 07:14:04;;;;;;;92.10;36.13;;;-7.60;99.90;;;;;;5020983;28;20041;-55
2022/12/14 07:16:30;;;;;;;86.32;33.80;;;-7.60;99.90;;;;;;5024463;28;20116;-57
2022/12/14 07:18:56;;;;;;;75.80;32.22;;;-7.60;99.90;;;;;;5038466;28;20041;-59
2022/12/14 07:21:23;;;;;;;83.28;32.20;;;-7.60;99.90;;;;;;5023753;28;20033;-58
2022/12/14 07:23:51;;;;;;;73.45;29.83;;;-7.60;99.90;;;;;;5023129;28;20036;-57
2022/12/14 07:26:23;;;;;;;72.95;30.20;;;-7.60;99.90;;;;;;5023099;28;20045;-58
2022/12/14 07:28:49;;;;;;;74.10;30.35;;;-7.70;99.90;;;;;;5021951;28;20606;-59
2022/12/14 07:31:24;;;;;;;79.13;31.23;;;-7.60;99.90;;;;;;5023611;28;20041;-59
2022/12/14 07:33:54;;;;;;;78.10;30.63;;;-7.60;99.90;;;;;;5024606;28;20040;-58
2022/12/14 07:36:21;;;;;;;77.20;29.27;;;-7.50;99.90;;;;;;5023246;28;20041;-57
2022/12/14 07:38:48;;;;;;;77.43;30.70;;;-7.50;99.90;;;;;;5023294;28;20042;-56
2022/12/14 07:41:17;;;;;;;71.55;28.70;;;-7.50;99.90;;;;;;5022829;28;20096;-58
2022/12/14 07:43:43;;;;;;;79.50;29.35;;;-7.50;99.90;;;;;;5021855;28;20402;-57
2022/12/14 07:46:14;;;;;;;64.50;26.83;;;-7.50;99.90;;;;;;5023376;28;20046;-59
2022/12/14 07:48:46;;;;;;;65.45;26.83;;;-7.50;99.90;;;;;;5024280;28;20662;-57
2022/12/14 07:51:13;;;;;;;79.88;28.17;;;-7.50;99.90;;;;;;5023817;28;20045;-58
2022/12/14 07:53:39;;;;;;;72.93;27.10;;;-7.50;99.90;;;;;;5023239;28;20418;-58
2022/12/14 07:56:09;;;;;;;72.75;29.42;;;-7.60;99.90;;;;;;5024103;28;20052;-59
2022/12/14 07:58:36;;;;;;;70.00;28.05;;;-7.50;99.90;;;;;;5021708;28;20828;-61
2022/12/14 08:01:15;;;;;;;76.45;30.40;;;-7.50;99.90;;;;;;5023302;28;20083;-59
2022/12/14 08:03:44;;;;;;;74.00;30.13;;;-7.50;99.90;;;;;;5024062;28;20128;-60
2022/12/14 08:06:11;;;;;;;73.35;29.33;;;-7.50;99.90;;;;;;5023498;28;20088;-58
2022/12/14 08:08:38;;;;;;;66.35;27.15;;;-7.40;99.90;;;;;;5023096;28;20032;-59
2022/12/14 08:11:04;;;;;;;74.18;28.65;;;-7.40;99.90;;;;;;5023515;28;20045;-58
2022/12/14 08:13:30;;;;;;;77.15;29.05;;;-7.40;99.90;;;;;;5020599;28;20064;-55
2022/12/14 08:15:55;;;;;;;74.00;29.98;;;-7.30;99.90;;;;;;5017151;28;20034;-58
2022/12/14 08:18:21;;;;;;;73.82;29.13;;;-7.30;99.90;;;;;;5003791;28;20403;-58
2022/12/14 08:20:50;;;;;;;76.47;29.77;;;-7.30;99.90;;;;;;5003814;28;20464;-59
2022/12/14 08:23:16;;;;;;;83.93;30.75;;;-7.20;99.90;;;;;;5015760;28;20485;-59
2022/12/14 08:25:42;;;;;;;83.60;31.23;;;-7.10;99.90;;;;;;5022871;28;20377;-57
2022/12/14 08:28:08;;;;;;;79.28;31.00;;;-7.10;99.90;;;;;;5020236;28;20053;-59
2022/12/14 08:30:37;;;;;;;80.07;33.53;;;-7.00;99.90;;;;;;5022200;28;20036;-57
2022/12/14 08:33:03;;;;;;;81.07;32.00;;;-6.90;99.90;;;;;;5023592;28;20182;-58
2022/12/14 08:35:31;;;;;;;79.03;30.63;;;-6.80;99.90;;;;;;5023141;28;21120;-57
2022/12/14 08:37:57;;;;;;;70.80;28.02;;;-6.70;99.90;;;;;;5022822;28;20081;-59
2022/12/14 08:40:23;;;;;;;79.90;29.95;;;-6.60;99.90;;;;;;5023361;28;20646;-59
2022/12/14 08:42:49;;;;;;;71.85;29.33;;;-6.50;99.90;;;;;;5020768;28;20037;-58
2022/12/14 08:45:14;;;;;;;74.60;29.80;;;-6.50;99.90;;;;;;5021689;28;20029;-59
2022/12/14 08:47:40;;;;;;;71.80;29.30;;;-6.40;99.90;;;;;;5023296;28;20558;-60
2022/12/14 08:50:06;;;;;;;74.97;31.63;;;-6.30;99.90;;;;;;5011657;28;20068;-59
2022/12/14 08:52:31;;;;;;;74.05;29.20;;;-6.20;99.90;;;;;;5009061;28;20049;-60
2022/12/14 08:54:57;;;;;;;72.40;29.13;;;-6.10;99.90;;;;;;5027625;28;20048;-60
2022/12/14 08:57:23;;;;;;;69.05;29.17;;;-6.00;99.90;;;;;;5027374;28;20103;-60
2022/12/14 08:59:48;;;;;;;74.18;30.50;;;-5.90;99.90;;;;;;5025408;28;20057;-57
2022/12/14 09:02:14;;;;;;;68.38;26.23;;;-5.90;99.90;;;;;;5027563;28;20049;-60
2022/12/14 09:04:39;;;;;;;66.93;28.02;;;-5.80;99.90;;;;;;5027126;28;20037;-59
2022/12/14 09:07:05;;;;;;;71.28;29.85;;;-5.70;99.90;;;;;;5027289;28;20045;-58
2022/12/14 09:09:33;;;;;;;72.65;30.58;;;-5.60;99.90;;;;;;5026610;28;20233;-59
2022/12/14 09:12:02;;;;;;;76.47;33.00;;;-5.60;99.90;;;;;;5027282;28;20055;-58
2022/12/14 09:14:28;;;;;;;68.95;31.20;;;-5.50;99.90;;;;;;5024896;28;20481;-59
2022/12/14 09:16:53;;;;;;;70.32;28.50;;;-5.40;99.90;;;;;;5027233;28;20041;-59
2022/12/14 09:19:19;;;;;;;64.97;29.27;;;-5.40;99.90;;;;;;5025974;28;20048;-59
2022/12/14 09:21:44;;;;;;;61.45;27.10;;;-5.30;99.90;;;;;;5027010;28;20769;-59
2022/12/14 09:24:10;;;;;;;70.90;29.27;;;-5.30;99.90;;;;;;5026243;28;20658;-57
2022/12/14 09:26:36;;;;;;;65.28;27.13;;;-5.20;99.90;;;;;;5025308;28;20415;-59
2022/12/14 09:29:01;;;;;;;75.03;30.85;;;-5.20;99.90;;;;;;5024264;28;20065;-61
2022/12/14 09:31:27;;;;;;;58.08;25.52;;;-5.10;99.90;;;;;;5025174;28;20041;-59
2022/12/14 09:33:53;;;;;;;72.15;27.60;;;-5.10;99.90;;;;;;5026714;28;20539;-60
2022/12/14 09:36:21;;;;;;;59.28;26.63;;;-5.10;99.90;;;;;;5026233;28;20048;-58
2022/12/14 09:38:48;;;;;;;63.28;27.08;;;-5.00;99.90;;;;;;5026005;28;20053;-57
2022/12/14 09:41:34;;;;;;;67.15;27.83;;;-5.00;99.90;;;;;;5026456;28;20120;-56
2022/12/14 09:44:24;;;;;;;57.47;25.33;;;-5.00;99.90;;;;;;5008577;28;20060;-57
2022/12/14 09:47:09;;;;;;;60.10;24.60;;;-5.00;99.90;;;;;;5027254;28;20037;-57
2022/12/14 09:49:54;;;;;;;60.70;25.45;;;-4.90;99.90;;;;;;5026377;28;20565;-58
2022/12/14 09:52:28;;;;;;;62.25;26.58;;;-4.90;99.90;;;;;;5025892;28;20533;-58
2022/12/14 09:54:56;;;;;;;60.72;25.48;;;-4.80;99.90;;;;;;5006540;28;20489;-57
2022/12/14 09:57:36;;;;;;;56.45;25.20;;;-4.80;99.90;;;;;;5006572;28;20073;-58
2022/12/14 10:00:13;;;;;;;63.90;25.50;;;-4.80;99.90;;;;;;5030768;28;20128;-57
2022/12/14 10:02:50;;;;;;;56.20;24.33;;;-4.70;99.90;;;;;;5026488;28;20041;-58
2022/12/14 10:05:26;;;;;;;58.45;25.10;;;-4.70;99.90;;;;;;5026070;28;20037;-55
2022/12/14 10:08:17;;;;;;;63.40;26.63;;;-4.60;99.90;;;;;;5025135;28;20231;-58
2022/12/14 10:11:08;;;;;;;59.28;27.13;;;-4.50;99.90;;;;;;5026402;28;20045;-58
2022/12/14 10:13:53;;;;;;;57.88;24.70;;;-4.50;99.90;;;;;;5025918;28;20541;-58
2022/12/14 10:16:35;;;;;;;59.15;24.98;;;-4.40;99.90;;;;;;5025772;28;20104;-59
2022/12/14 10:19:28;;;;;;;58.60;24.85;;;-4.30;99.90;;;;;;5025966;28;20512;-60
2022/12/14 10:22:01;;;;;;;51.97;23.85;;;-4.20;99.90;;;;;;5025782;28;20371;-60
2022/12/14 10:24:39;;;;;;;53.42;23.17;;;-4.20;99.90;;;;;;5023259;28;20051;-60
2022/12/14 10:27:08;;;;;;;54.58;22.92;;;-4.10;99.90;;;;;;5025856;28;20058;-60
2022/12/14 10:29:43;;;;;;;56.70;23.67;;;-4.10;99.90;;;;;;5023373;28;20352;-59
2022/12/14 10:32:19;;;;;;;54.97;23.85;;;-4.00;99.90;;;;;;5025699;28;20079;-60
2022/12/14 10:34:45;;;;;;;50.88;24.38;;;-4.00;99.90;;;;;;5025216;28;20049;-60
2022/12/14 10:37:13;;;;;;;50.35;23.08;;;-3.90;99.90;;;;;;5025490;28;20037;-59
2022/12/14 10:40:07;;;;;;;51.47;23.52;;;-3.90;99.90;;;;;;5039779;28;20045;-60
2022/12/14 10:42:41;;;;;;;52.55;23.30;;;-3.80;99.90;;;;;;5023598;28;20045;-59
2022/12/14 10:45:23;;;;;;;51.05;23.10;;;-3.70;99.90;;;;;;5023672;28;20041;-59
2022/12/14 10:47:57;;;;;;;45.63;22.10;;;-3.60;99.90;;;;;;5025613;28;20076;-60
2022/12/14 10:50:31;;;;;;;52.45;22.58;;;-3.40;99.90;;;;;;5025253;28;20041;-59
2022/12/14 10:52:58;;;;;;;53.58;24.25;;;-3.40;99.90;;;;;;5038059;28;20045;-59
2022/12/14 10:55:32;;;;;;;55.65;23.88;;;-3.30;99.90;;;;;;5025568;28;20076;-60
2022/12/14 10:57:59;;;;;;;53.88;24.27;;;-3.20;99.90;;;;;;5024034;28;20041;-60
2022/12/14 11:00:25;;;;;;;48.30;23.88;;;-3.20;99.90;;;;;;5023764;28;20090;-60
2022/12/14 11:02:54;;;;;;;51.30;23.73;;;-3.10;99.90;;;;;;5025414;28;20041;-59
2022/12/14 11:05:40;;;;;;;49.65;23.63;;;-3.00;99.90;;;;;;5025246;28;20231;-60
2022/12/14 11:08:06;;;;;;;47.05;23.35;;;-2.90;99.90;;;;;;5023734;28;20512;-60
2022/12/14 11:10:34;;;;;;;50.45;24.73;;;-2.80;99.90;;;;;;5020819;28;20037;-58
2022/12/14 11:13:05;;;;;;;49.17;23.38;;;-2.70;99.90;;;;;;5008135;28;20077;-59
2022/12/14 11:15:39;;;;;;;45.97;22.85;;;-2.60;99.90;;;;;;5019289;28;20083;-57
2022/12/14 11:18:26;;;;;;;49.75;23.42;;;-2.40;99.90;;;;;;5024672;28;20045;-57
2022/12/14 11:20:58;;;;;;;51.95;23.90;;;-2.40;99.90;;;;;;5025044;28;20045;-56
2022/12/14 11:23:35;;;;;;;46.97;22.67;;;-2.30;99.90;;;;;;5024131;28;20041;-58
2022/12/14 11:26:14;;;;;;;45.75;21.38;;;-2.10;99.90;;;;;;5024422;28;20046;-58
2022/12/14 11:28:52;;;;;;;48.40;23.52;;;-1.90;99.90;;;;;;5023007;28;20060;-56
2022/12/14 11:31:29;;;;;;;48.13;22.98;;;-1.80;99.90;;;;;;5024257;28;20037;-57
2022/12/14 11:33:57;;;;;;;53.38;25.00;;;-1.70;99.90;;;;;;5024234;28;20069;-57
2022/12/14 11:36:40;;;;;;;47.20;23.45;;;-1.60;99.90;;;;;;5024360;28;20085;-57
2022/12/14 11:39:12;;;;;;;45.35;23.45;;;-1.50;99.90;;;;;;5023773;28;20170;-57
2022/12/14 11:41:50;;;;;;;55.55;25.73;;;-1.40;99.90;;;;;;5024719;28;20577;-59
2022/12/14 11:44:16;;;;;;;52.75;24.38;;;-1.20;99.90;;;;;;5006824;28;20041;-57
2022/12/14 11:47:17;;;;;;;46.38;23.42;;;-1.00;99.90;;;;;;5024216;28;20519;-57
2022/12/14 11:49:44;;;;;;;49.25;24.25;;;-0.80;99.90;;;;;;5022286;28;20135;-57
2022/12/14 11:52:19;;;;;;;45.50;23.50;;;-0.80;99.90;;;;;;5022157;28;20049;-56
2022/12/14 11:55:01;;;;;;;46.50;24.42;;;-0.70;99.90;;;;;;5023491;28;20160;-58
2022/12/14 11:57:33;;;;;;;47.83;25.40;;;-0.70;99.90;;;;;;5022938;28;20127;-58
2022/12/14 12:00:05;;;;;;;46.92;24.55;;;-0.80;99.90;;;;;;5037185;28;20140;-57
2022/12/14 12:02:47;;;;;;;48.30;24.15;;;-0.90;99.90;;;;;;5024061;28;20038;-57
2022/12/14 12:05:16;;;;;;;49.72;23.83;;;-0.90;99.90;;;;;;5023840;28;20072;-57
2022/12/14 12:07:51;;;;;;;50.47;23.77;;;-1.00;99.90;;;;;;5023125;28;20075;-58
2022/12/14 12:10:20;;;;;;;41.05;20.70;;;-1.00;99.90;;;;;;5024224;28;20045;-58
2022/12/14 12:13:13;;;;;;;43.00;20.55;;;-1.00;99.90;;;;;;5022824;28;20045;-57
2022/12/14 12:15:42;;;;;;;43.65;22.30;;;-1.10;99.90;;;;;;5022722;28;20136;-58
2022/12/14 12:18:37;;;;;;;51.10;24.65;;;-1.00;99.90;;;;;;5023812;28;20041;-57
2022/12/14 12:21:15;;;;;;;46.67;23.80;;;-1.10;99.90;;;;;;5019923;28;20045;-59
2022/12/14 12:23:44;;;;;;;51.10;26.02;;;-1.10;99.90;;;;;;5022980;28;20478;-59
2022/12/14 12:26:19;;;;;;;44.67;23.95;;;-1.10;99.90;;;;;;5023980;28;20060;-58
2022/12/14 12:29:14;;;;;;;48.55;24.90;;;-1.20;99.90;;;;;;5021909;28;20041;-57
2022/12/14 12:31:50;;;;;;;45.53;23.17;;;-1.10;99.90;;;;;;5010221;28;20414;-57
2022/12/14 12:34:24;;;;;;;47.28;23.50;;;-1.20;99.90;;;;;;5004196;28;20049;-58
2022/12/14 12:36:52;;;;;;;46.83;23.23;;;-1.20;99.90;;;;;;5023257;28;20316;-57
2022/12/14 12:39:22;;;;;;;46.63;22.85;;;-1.20;99.90;;;;;;5022571;28;20400;-57
2022/12/14 12:41:51;;;;;;;46.38;23.25;;;-1.20;99.90;;;;;;5023378;28;20037;-55
2022/12/14 12:44:43;;;;;;;49.08;24.65;;;-1.10;99.90;;;;;;5020373;28;20075;-56
2022/12/14 12:47:33;;;;;;;45.33;23.45;;;-1.10;99.90;;;;;;5023548;28;20049;-57
2022/12/14 12:50:08;;;;;;;44.05;23.40;;;-1.10;99.90;;;;;;5023445;28;20041;-57
2022/12/14 12:52:56;;;;;;;45.78;23.38;;;-1.00;99.90;;;;;;5022517;28;20062;-58
2022/12/14 12:55:23;;;;;;;47.60;23.45;;;-1.00;99.90;;;;;;5023068;28;20041;-58
2022/12/14 12:57:56;;;;;;;43.42;23.15;;;-0.90;99.90;;;;;;5020796;28;20055;-57
2022/12/14 13:00:24;;;;;;;47.13;22.67;;;-0.90;99.90;;;;;;5022154;28;20056;-57
2022/12/14 13:03:16;;;;;;;51.08;24.48;;;-0.80;99.90;;;;;;5023527;28;20420;-57